Portada
METAR-TAF:

METAR-TAF

Aeroports :

Aeroport de la Ciutat de Belfast

Belfast, Irlanda del Nord

latitud: 54-36N, longitud: 005-53W, altitud: 5 m

Observació

L'informe es va fer fa 23 minuts, a les 23:50 UTC
Vent 1 kt amb direcció variable
Temperatura 5°C
Humitat 87%
Pressió 1025 hPa
Visibilitat 10 km o més

METAR: EGAC 212350Z AUTO VRB01KT 9999 NCD 05/03 Q1025

Hora: 01:13 (00:13 UTC)

Pronòstic

L'informe es va fer fa 10 hores i 15 minuts, a les 13:58 UTC
Pronòstic vàlid del 21 a les 15 UTC al 21 a les 17 UTC
Vent 9 kt del Est
Visibilitat 10 km o més
Escasses núvols a una alçada de 3500 ft

TAF: EGAC 211358Z 2115/2117 10009KT 9999 FEW035

Observacions i pronòstics meteorològics de més de 4000 aeroports (METAR i TAF).

Les estacions disponibles són els punts grocs i vermells al mapa.

Posi el ratolí al punt desitjat per veure el nom de l'estació.

Feu clic per veure les observacions i els pronòstics meteorològics.

Per canviar el mapa: feu clic els botons verds amb una creu de color negre per apropar; al botó verd amb un guió per allunyar la imatge; o en les fletxes verdes per a mapes adjacents.


METAR-TAF: